Latest Weather Observations for Telfer

IDW60801

Issued at 9:03 pm WST Tuesday 28 January 2020 (issued every 10 minutes, with the page automatically refreshed every 10 minutes)

About weather observations | Map of weather stations | Latest weather observations for WA | Other Formats
Station Details ID: 013030 Name: TELFER AERO Lat: -21.71 Lon: 122.23 Height: 291.9 m
Data from the previous 72 hours. | See also: Recent months at Telfer
Date/Time
WST
Temp
°C
App
Temp
°C
Dew
Point
°C
Rel
Hum
%
Delta-T
°C
Wind Press
QNH
hPa
Press
MSL
hPa
Rain since
9am
mm
Dir  Spd
km/h
Gust
km/h
Spd
kts
Gust
kts
28/09:00pm 35.6 33.7 7.6 18 15.9 SSE 7 9 4 5 1007.1 1004.5 0.0
28/08:30pm 34.2 32.9 11.4 25 13.6 ESE 9 15 5 8 1007.0 1004.4 0.0
28/08:00pm 38.3 35.5 5.0 13 18.4 S 9 13 5 7 1006.8 1004.2 0.0
28/07:30pm 38.9 36.3 4.4 12 18.9 SE 7 7 4 4 1006.8 1004.2 0.0
28/07:00pm 39.8 37.3 3.8 11 19.7 SE 6 7 3 4 1006.5 1003.9 0.0
28/06:30pm 41.3 37.8 3.6 10 20.6 SE 11 15 6 8 1006.2 1003.6 0.0
28/06:00pm 41.6 38.0 5.2 11 20.5 ESE 13 19 7 10 1005.8 1003.3 0.0
28/05:30pm 42.6 39.3 4.6 10 21.2 SSE 11 19 6 10 1005.6 1003.1 0.0
28/05:00pm 42.8 40.5 4.7 10 21.4 SE 6 13 3 7 1005.5 1003.0 0.0
28/04:30pm 43.1 40.2 6.3 11 21.1 ESE 11 19 6 10 1005.4 1002.9 0.0
28/04:00pm 42.9 40.3 6.2 11 21.1 SSW 9 17 5 9 1005.5 1003.0 0.0
28/03:30pm 43.6 40.7 6.7 11 21.3 ESE 11 20 6 11 1005.7 1003.2 0.0
28/03:00pm 42.9 40.3 6.2 11 21.1 NE 9 20 5 11 1006.1 1003.5 0.0
28/02:30pm 43.6 39.2 6.7 11 21.3 ESE 19 32 10 17 1006.4 1003.8 0.0
28/02:00pm 43.4 40.5 6.5 11 21.3 SSE 11 24 6 13 1006.7 1004.1 0.0
28/01:30pm 43.1 39.4 6.3 11 21.1 S 15 28 8 15 1007.1 1004.5 0.0
28/01:00pm 42.3 39.9 7.0 12 20.4 S 9 17 5 9 1007.4 1004.8 0.0
28/12:30pm 41.6 38.7 6.4 12 20.1 ESE 11 20 6 11 1007.8 1005.3 0.0
28/12:00pm 42.4 38.9 7.0 12 20.5 ENE 15 24 8 13 1008.2 1005.7 0.0
28/11:30am 41.3 40.0 11.3 17 18.3 N 9 32 5 17 1008.6 1006.1 0.0
28/11:00am 39.8 39.2 13.4 21 16.5 S 9 19 5 10 1009.1 1006.6 0.0
28/10:30am 39.2 38.5 14.3 23 15.7 S 11 19 6 10 1009.4 1006.9 0.0
28/10:00am 37.9 37.6 14.5 25 14.8 SW 9 15 5 8 1009.7 1007.1 0.0
28/09:30am 37.4 37.0 15.2 26 14.1 WSW 11 15 6 8 1010.0 1007.4 0.0
28/09:00am 36.1 35.9 17.7 33 12.1 WSW 15 19 8 10 1010.1 1007.5 0.0
28/08:30am 34.6 34.6 19.0 39 10.4 SW 17 22 9 12 1010.1 1007.5 0.0
28/08:00am 33.4 34.7 20.9 48 8.5 WSW 15 20 8 11 1010.2 1007.6 0.0
28/07:30am 32.4 33.4 21.0 51 7.7 WSW 17 20 9 11 1010.2 1007.6 0.0
28/07:00am 31.2 32.5 21.7 57 6.5 W 17 22 9 12 1010.0 1007.4 0.0
28/06:30am 30.0 33.0 21.9 62 5.5 NW 9 13 5 7 1009.9 1007.3 0.0
28/06:00am 29.2 32.1 21.7 64 5.1 WNW 9 13 5 7 1009.6 1007.0 0.0
28/05:30am 28.9 30.8 21.4 64 5.1 WNW 13 19 7 10 1009.2 1006.7 0.0
28/05:00am 29.4 30.4 20.3 58 6.1 WNW 15 20 8 11 1008.9 1006.4 0.0
28/04:30am 29.7 30.6 20.8 58 6.0 W 17 20 9 11 1008.9 1006.4 0.0
28/04:00am 29.4 29.7 20.5 58 6.0 WNW 19 22 10 12 1008.4 1005.9 0.0
28/03:30am 29.7 30.4 19.7 55 6.6 WNW 15 19 8 10 1008.5 1006.0 0.0
28/03:00am 30.0 31.0 19.4 53 7.0 NW 13 19 7 10 1008.5 1006.0 0.0
28/02:30am 30.4 31.6 19.1 50 7.4 NW 11 17 6 9 1008.5 1006.0 0.0
28/02:00am 30.8 31.8 19.5 51 7.5 NW 13 20 7 11 1008.5 1006.0 0.0
28/01:30am 31.2 32.2 20.2 52 7.4 WNW 15 19 8 10 1008.7 1006.2 0.0
28/01:00am 31.3 32.1 20.6 53 7.2 W 17 22 9 12 1008.8 1006.3 0.0
28/12:30am 31.8 32.2 21.0 52 7.3 WNW 20 26 11 14 1009.1 1006.6 0.0
28/12:00am 32.3 32.8 21.2 52 7.6 WNW 20 28 11 15 1009.1 1006.6 0.0
 
Date/Time
WST
Temp
°C
App
Temp
°C
Dew
Point
°C
Rel
Hum
%
Delta-T
°C
Wind Press
QNH
hPa
Press
MSL
hPa
Rain since
9am
mm
Dir  Spd
km/h
Gust
km/h
Spd
kts
Gust
kts
27/11:30pm 32.7 33.2 20.9 49 8.0 NW 19 26 10 14 1009.6 1007.0 0.0
27/11:00pm 33.5 31.7 18.8 41 9.7 WNW 26 37 14 20 1009.7 1007.1 0.0
27/10:52pm 34.2 31.3 17.0 36 11.1 WNW 28 37 15 20 1009.4 1006.9 0.0
27/10:30pm 36.2 35.1 11.8 23 14.7 WNW 9 13 5 7 1009.4 1006.9 0.0
27/10:00pm 36.7 36.5 13.5 25 14.4 W 7 9 4 5 1009.6 1007.0 0.0
27/09:30pm 36.3 35.8 13.7 25 14.0 W 9 9 5 5 1009.4 1006.9 0.0
27/09:00pm 36.3 35.2 13.1 25 14.3 WNW 11 13 6 7 1009.1 1006.6 0.0
27/08:30pm 36.3 35.8 13.7 25 14.0 N 9 11 5 6 1008.9 1006.4 0.0
27/08:00pm 37.2 36.5 13.3 24 14.8 NNW 9 11 5 6 1008.8 1006.3 0.0
27/07:30pm 37.6 37.4 13.6 24 14.9 N 7 11 4 6 1008.5 1006.0 0.0
27/07:00pm 38.6 38.6 12.4 21 16.1 N 4 9 2 5 1008.3 1005.8 0.0
27/06:30pm 39.7 39.1 11.7 19 17.1 NW 6 9 3 5 1008.0 1005.5 0.0
27/06:00pm 40.7 40.6 10.9 17 18.1 WNW 2 9 1 5 1007.7 1005.2 0.0
27/05:30pm 40.7 39.9 10.9 17 18.1 NE 6 7 3 4 1007.5 1004.9 0.0
27/05:00pm 40.4 38.8 11.5 18 17.7 E 11 15 6 8 1007.2 1004.6 0.0
27/04:30pm 40.8 39.0 10.9 17 18.1 SE 11 13 6 7 1007.0 1004.4 0.0
27/04:00pm 40.9 39.3 10.1 16 18.5 W 9 17 5 9 1007.1 1004.5 0.0
27/03:30pm 41.1 40.1 10.3 16 18.5 NW 6 15 3 8 1007.4 1004.8 0.0
27/03:00pm 41.7 39.9 10.8 16 18.8 NNW 11 22 6 12 1007.5 1004.9 0.0
27/02:30pm 40.4 37.1 11.5 18 17.7 N 20 30 11 16 1007.8 1005.3 0.0
27/02:00pm 41.8 38.8 12.6 18 18.2 NNE 20 33 11 18 1007.9 1005.4 0.0
27/01:30pm 41.5 39.2 10.6 16 18.7 N 13 24 7 13 1008.1 1005.6 0.0
27/01:00pm 41.4 38.2 11.4 17 18.4 N 19 32 10 17 1008.6 1006.1 0.0
27/12:30pm 41.1 38.8 12.9 19 17.6 NNE 17 28 9 15 1009.0 1006.5 0.0
27/12:00pm 40.8 39.7 14.2 21 16.9 N 13 22 7 12 1009.3 1006.8 0.0
27/11:30am 39.9 37.5 12.7 20 16.9 NNW 17 24 9 13 1009.7 1007.1 0.0
27/11:00am 39.1 37.7 13.5 22 16.0 NNE 13 22 7 12 1010.0 1007.4 0.0
27/10:30am 38.8 37.8 11.0 19 16.8 NNW 7 15 4 8 1010.3 1007.7 0.0
27/10:00am 38.4 36.6 7.2 15 17.8 NNE 6 9 3 5 1010.4 1007.8 0.0
27/09:30am 37.3 35.7 6.3 15 17.3 ESE 4 9 2 5 1010.5 1007.9 0.0
27/09:00am 36.6 34.3 4.8 14 17.3 ESE 6 11 3 6 1010.6 1008.0 0.0
27/08:30am 34.6 30.5 4.2 15 16.2 SSE 15 19 8 10 1010.7 1008.1 0.0
27/08:00am 34.3 29.9 4.9 16 15.9 SSE 17 22 9 12 1010.7 1008.1 0.0
27/07:30am 33.1 29.0 6.4 19 14.6 S 17 22 9 12 1010.5 1007.9 0.0
27/07:00am 32.2 28.8 7.8 22 13.6 SSE 15 20 8 11 1010.4 1007.8 0.0
27/06:30am 30.4 29.5 13.7 36 10.1 SSW 11 17 6 9 1010.0 1007.4 0.0
27/06:00am 30.3 29.8 14.8 39 9.6 SW 11 15 6 8 1009.7 1007.1 0.0
27/05:30am 30.2 29.2 15.5 41 9.2 SW 15 20 8 11 1009.2 1006.7 0.0
27/05:00am 30.7 29.4 15.9 40 9.3 SW 17 24 9 13 1008.9 1006.4 0.0
27/04:30am 30.8 29.8 15.6 39 9.5 WSW 15 17 8 9 1008.7 1006.2 0.0
27/04:00am 30.9 30.7 15.7 39 9.5 W 11 17 6 9 1008.5 1006.0 0.0
27/03:30am 31.1 30.2 15.9 40 9.6 WSW 15 22 8 12 1008.6 1006.1 0.0
27/03:00am 30.8 30.0 16.0 40 9.3 WSW 15 22 8 12 1008.7 1006.2 0.0
27/02:30am 30.8 29.7 16.4 42 9.1 SW 17 22 9 12 1008.6 1006.1 0.0
27/02:00am 30.6 30.5 17.0 44 8.7 WSW 13 17 7 9 1008.5 1006.0 0.0
27/01:30am 30.3 30.6 17.0 44 8.5 NW 11 17 6 9 1008.6 1006.1 0.0
27/01:00am 31.1 30.1 16.7 42 9.2 W 17 20 9 11 1008.5 1006.0 0.0
27/12:30am 31.5 30.0 16.3 40 9.6 W 19 24 10 13 1008.9 1006.4 0.0
27/12:00am 31.7 30.2 16.4 39 9.7 WSW 19 24 10 13 1009.1 1006.6 0.0
 
Date/Time
WST
Temp
°C
App
Temp
°C
Dew
Point
°C
Rel
Hum
%
Delta-T
°C
Wind Press
QNH
hPa
Press
MSL
hPa
Rain since
9am
mm
Dir  Spd
km/h
Gust
km/h
Spd
kts
Gust
kts
26/11:30pm 32.3 30.9 17.0 40 9.8 W 20 24 11 13 1009.6 1007.0 0.0
26/11:00pm 32.5 30.8 16.3 37 10.3 W 20 26 11 14 1009.7 1007.1 0.0
26/10:30pm 32.8 31.6 16.2 37 10.6 W 17 20 9 11 1009.9 1007.3 0.0
26/10:00pm 33.1 31.1 15.6 35 11.1 WNW 20 28 11 15 1009.9 1007.3 0.0
26/09:30pm 33.5 32.5 15.5 34 11.4 WNW 15 19 8 10 1009.6 1007.0 0.0
26/09:00pm 33.8 34.0 15.7 33 11.5 NNW 9 13 5 7 1009.3 1006.8 0.0
26/08:30pm 34.4 33.7 15.3 31 12.1 N 13 17 7 9 1009.3 1006.8 0.0
26/08:00pm 34.8 34.0 15.2 31 12.4 NNW 13 19 7 10 1008.9 1006.4 0.0
26/07:30pm 35.6 35.6 15.3 29 12.9 NNW 9 13 5 7 1008.1 1005.6 0.0
26/07:00pm 35.8 35.1 15.5 29 12.9 NNE 13 17 7 9 1007.5 1004.9 0.0
26/06:30pm 36.0 35.0 15.7 30 12.9 N 15 22 8 12 1007.0 1004.4 0.0
26/06:00pm 36.7 34.6 15.2 27 13.7 NNE 20 32 11 17 1006.7 1004.1 0.0
26/05:30pm 39.0 36.3 14.7 23 15.4 NNE 22 35 12 19 1006.3 1003.7 0.0
26/05:00pm 41.7 38.7 10.8 16 18.8 SE 17 30 9 16 1005.8 1003.3 0.0
26/04:30pm 41.3 38.5 11.3 17 18.3 SSE 17 26 9 14 1006.1 1003.5 0.0
26/04:00pm 41.4 38.4 10.5 16 18.7 SE 17 24 9 13 1006.2 1003.6 0.0
26/03:30pm 41.9 40.0 11.8 17 18.6 SSE 13 28 7 15 1006.4 1003.8 0.0
26/03:00pm 41.7 39.8 11.7 17 18.5 SE 13 26 7 14 1006.8 1004.2 0.0
26/02:30pm 42.0 40.2 11.0 16 18.9 SSE 11 24 6 13 1007.1 1004.5 0.0
26/02:00pm 40.3 36.9 10.6 17 17.9 ENE 19 26 10 14 1007.4 1004.8 0.0
26/01:30pm 41.7 39.5 13.4 19 17.8 ENE 17 28 9 15 1007.7 1005.2 0.0
26/01:00pm 40.1 38.8 15.7 24 15.8 ENE 17 30 9 16 1008.2 1005.7 0.0
26/12:30pm 40.2 39.5 16.4 25 15.5 ESE 15 22 8 12 1008.6 1006.1 0.0
26/12:00pm 39.3 37.4 16.8 26 14.7 ESE 22 39 12 21 1008.9 1006.4 0.0
26/11:30am 38.6 37.3 16.8 27 14.2 E 19 32 10 17 1009.4 1006.9 0.0
26/11:00am 37.7 36.3 16.6 28 13.7 E 19 32 10 17 1009.9 1007.3 0.0
26/10:30am 37.2 35.9 16.7 29 13.3 ESE 19 30 10 16 1010.1 1007.5 0.0
26/10:00am 37.0 35.8 16.0 28 13.5 ENE 17 24 9 13 1010.3 1007.7 0.0
26/09:30am 35.6 34.3 15.9 31 12.6 E 17 26 9 14 1010.4 1007.8 0.0
26/09:00am 34.6 32.2 14.5 30 12.6 ESE 20 28 11 15 1010.4 1007.8 0.0
26/08:30am 34.1 31.8 14.6 31 12.2 ESE 20 28 11 15 1010.4 1007.8 0.0
26/08:00am 33.2 28.2 7.9 21 14.2 SE 24 30 13 16 1010.6 1008.0 0.0
26/07:30am 32.1 26.3 6.3 20 14.1 SE 26 32 14 17 1010.6 1008.0 0.0
26/07:00am 31.2 25.8 6.3 21 13.5 SE 24 32 13 17 1010.4 1007.8 0.0
26/06:30am 29.8 24.3 5.8 22 12.8 SE 24 28 13 15 1010.1 1007.5 0.0
26/06:00am 28.8 23.7 6.2 24 12.1 SE 22 28 12 15 1009.7 1007.1 0.0
26/05:30am 28.4 22.8 3.3 20 12.7 SE 22 26 12 14 1009.2 1006.7 0.0
26/05:00am 28.7 23.5 3.5 20 12.9 SE 20 22 11 12 1008.8 1006.3 0.0
26/04:30am 29.0 24.6 6.4 24 12.1 SE 19 24 10 13 1008.6 1006.1 0.0
26/04:00am 29.8 24.2 3.7 19 13.5 SE 22 26 12 14 1008.3 1005.8 0.0
26/03:30am 30.8 24.4 5.3 20 13.6 SSE 28 35 15 19 1008.0 1005.5 0.0
26/03:00am 31.1 24.0 5.5 20 13.7 SSE 32 41 17 22 1007.8 1005.3 0.0
26/02:30am 31.9 24.9 6.2 20 14.0 SSE 32 43 17 23 1007.7 1005.2 0.0
26/02:00am 32.0 27.1 7.0 21 13.8 SSE 22 30 12 16 1007.8 1005.3 0.0
26/01:30am 31.0 27.7 8.1 24 12.8 SSE 15 20 8 11 1008.0 1005.5 0.0
26/01:00am 31.7 27.4 8.0 23 13.3 E 20 28 11 15 1008.2 1005.7 0.0
26/12:30am 33.7 27.8 7.6 20 14.6 SSE 28 35 15 19 1007.9 1005.4 0.0
26/12:00am 34.2 29.0 7.3 19 15.1 SSE 24 32 13 17 1007.9 1005.4 0.0
 
Date/Time
WST
Temp
°C
App
Temp
°C
Dew
Point
°C
Rel
Hum
%
Delta-T
°C
Wind Press
QNH
hPa
Press
MSL
hPa
Rain since
9am
mm
Dir  Spd
km/h
Gust
km/h
Spd
kts
Gust
kts
25/11:30pm 34.7 30.0 7.7 19 15.2 SSE 22 30 12 16 1008.0 1005.5 0.0
25/11:00pm 35.5 30.4 7.6 18 15.8 S 24 32 13 17 1008.1 1005.6 0.0
25/10:30pm 36.0 31.0 8.0 18 16.0 S 24 30 13 16 1008.1 1005.6 0.0
25/10:00pm 36.2 31.2 8.1 18 16.1 S 24 30 13 16 1008.1 1005.6 0.0
25/09:30pm 36.5 32.1 7.5 17 16.4 S 20 30 11 16 1008.0 1005.5 0.0

Other formats

Comma delimited format used in spreadsheet applications
http://www.bom.gov.au/fwo/IDW60801/IDW60801.94319.axf

JavaScript Object Notation format (JSON) in row-major order
http://www.bom.gov.au/fwo/IDW60801/IDW60801.94319.json

Data quality

Most of these data are generated automatically and are frequently updated. Quality checks on data are not normally performed. It is possible for incorrect values to appear. Refer to information at About Latest Weather Observations and please check the disclaimer before using these data.